createdAt,value
2018-11-20T00:00:40.726Z,36.47
2018-11-20T00:03:49.711Z,37.63
2018-11-20T00:06:58.918Z,38.60
2018-11-20T00:10:08.585Z,37.43
2018-11-20T00:13:17.324Z,36.50
2018-11-20T00:16:26.349Z,35.50
2018-11-20T00:19:26.730Z,35.87
2018-11-20T00:22:35.427Z,35.23
2018-11-20T00:25:44.410Z,34.70
2018-11-20T00:28:40.719Z,34.40
2018-11-20T00:31:49.449Z,34.67
2018-11-20T00:34:58.192Z,37.03
2018-11-20T00:38:06.929Z,35.93
2018-11-20T00:41:16.548Z,35.63
2018-11-20T00:44:18.696Z,34.17
2018-11-20T00:47:27.800Z,35.37
2018-11-20T00:50:36.518Z,33.83
2018-11-20T00:53:45.277Z,35.37
2018-11-20T00:56:44.735Z,34.20
2018-11-20T00:59:55.553Z,35.10
2018-11-20T01:03:04.317Z,34.67
2018-11-20T01:06:06.379Z,34.67
2018-11-20T01:09:15.440Z,35.30
2018-11-20T01:12:25.231Z,34.37
2018-11-20T01:15:35.194Z,35.43
2018-11-20T01:18:32.665Z,34.80
2018-11-20T01:21:37.621Z,34.33
2018-11-20T01:24:45.066Z,35.30
2018-11-20T01:27:54.828Z,36.07
2018-11-20T01:31:04.195Z,33.83
2018-11-20T01:34:13.366Z,34.37
2018-11-20T01:37:22.353Z,33.57
2018-11-20T01:40:29.675Z,34.00
2018-11-20T01:43:38.408Z,36.03
2018-11-20T01:46:38.315Z,34.07
2018-11-20T01:49:47.326Z,34.80
2018-11-20T01:52:56.307Z,35.63
2018-11-20T01:56:07.312Z,33.93
2018-11-20T01:59:15.225Z,34.87
2018-11-20T02:02:23.996Z,35.93
2018-11-20T02:05:32.716Z,34.47
2018-11-20T02:08:41.448Z,33.90
2018-11-20T02:11:50.192Z,35.23
2018-11-20T02:14:59.192Z,35.87
2018-11-20T02:18:12.933Z,36.63
2018-11-20T02:21:21.910Z,34.60
2018-11-20T02:24:31.029Z,36.67
2018-11-20T02:27:39.747Z,35.47
2018-11-20T02:30:49.172Z,35.93
2018-11-20T02:33:58.157Z,35.83
2018-11-20T02:37:07.697Z,35.07
2018-11-20T02:40:16.677Z,36.93
2018-11-20T02:43:13.159Z,35.73
2018-11-20T02:46:25.664Z,37.67
2018-11-20T02:49:34.843Z,36.13
2018-11-20T02:52:43.599Z,36.73
2018-11-20T02:55:52.827Z,34.80
2018-11-20T02:59:02.701Z,35.83
2018-11-20T03:02:11.842Z,35.90
2018-11-20T03:05:20.553Z,35.97
2018-11-20T03:08:27.952Z,35.97
2018-11-20T03:15:06.621Z,34.63
2018-11-20T03:18:17.537Z,35.80
2018-11-20T03:21:26.513Z,35.93
2018-11-20T03:24:35.480Z,34.43
2018-11-20T03:27:44.537Z,33.43
2018-11-20T03:31:13.115Z,34.40
2018-11-20T03:34:22.374Z,34.03
2018-11-20T03:37:31.582Z,34.30
2018-11-20T03:40:40.360Z,32.70
2018-11-20T03:43:49.331Z,33.10
2018-11-20T03:47:17.335Z,33.10
2018-11-20T03:50:26.560Z,33.83
2018-11-20T03:53:35.288Z,33.23
2018-11-20T03:56:44.858Z,33.77
2018-11-20T03:59:54.000Z,33.20
2018-11-20T04:03:02.708Z,32.73
2018-11-20T04:06:11.450Z,33.57
2018-11-20T04:09:20.652Z,33.20
2018-11-20T04:12:30.265Z,33.27
2018-11-20T04:15:39.950Z,33.63
2018-11-20T04:18:49.383Z,32.53
2018-11-20T04:22:17.642Z,32.00
2018-11-20T04:25:26.864Z,31.83
2018-11-20T04:28:25.518Z,31.23
2018-11-20T04:32:15.051Z,32.23
2018-11-20T04:35:25.843Z,31.70
2018-11-20T04:38:34.826Z,31.43
2018-11-20T04:41:44.321Z,31.87
2018-11-20T04:44:53.297Z,30.90
2018-11-20T04:48:02.332Z,30.57
2018-11-20T04:51:11.335Z,30.63
2018-11-20T04:54:20.056Z,30.80
2018-11-20T04:57:28.816Z,31.30
2018-11-20T05:00:37.471Z,30.80
2018-11-20T05:04:05.918Z,31.60
2018-11-20T05:07:14.662Z,31.67
2018-11-20T05:10:24.683Z,31.20
2018-11-20T05:13:27.715Z,30.50
2018-11-20T05:16:55.667Z,29.77
2018-11-20T05:20:04.417Z,29.07
2018-11-20T05:23:13.403Z,29.47
2018-11-20T05:26:23.023Z,28.87
2018-11-20T05:29:32.037Z,28.30
2018-11-20T05:33:00.065Z,28.23
2018-11-20T05:36:09.283Z,28.17
2018-11-20T05:39:19.917Z,27.40
2018-11-20T05:42:29.176Z,26.50
2018-11-20T05:45:38.470Z,28.87
2018-11-20T05:48:47.241Z,28.17
2018-11-20T05:51:56.024Z,27.30
2018-11-20T05:54:51.951Z,26.47
2018-11-20T05:58:00.675Z,26.93
2018-11-20T06:01:14.236Z,26.03
2018-11-20T06:04:20.963Z,26.33
2018-11-20T06:07:29.945Z,24.37
2018-11-20T06:10:39.044Z,24.90
2018-11-20T06:13:47.770Z,25.17
2018-11-20T06:16:56.772Z,23.90
2018-11-20T06:20:05.760Z,23.40
2018-11-20T06:23:15.018Z,23.83
2018-11-20T06:26:23.749Z,22.47
2018-11-20T06:29:32.743Z,23.03
2018-11-20T06:32:41.771Z,20.30
2018-11-20T06:35:51.848Z,19.60
2018-11-20T06:39:00.821Z,17.73
2018-11-20T06:42:10.064Z,17.23
2018-11-20T06:45:18.776Z,16.87
2018-11-20T06:48:28.473Z,16.27
2018-11-20T06:51:37.465Z,16.40
2018-11-20T06:54:46.398Z,14.77
2018-11-20T06:57:50.315Z,15.10
2018-11-20T07:00:59.480Z,15.73
2018-11-20T07:04:08.536Z,15.83
2018-11-20T07:07:18.375Z,15.53
2018-11-20T07:10:27.375Z,15.40
2018-11-20T07:13:35.864Z,15.50
2018-11-20T07:16:57.911Z,15.27
2018-11-20T07:20:10.669Z,15.17
2018-11-20T07:23:11.277Z,15.23
2018-11-20T07:26:20.030Z,15.47
2018-11-20T07:32:24.016Z,16.80
2018-11-20T07:35:38.245Z,16.17
2018-11-20T07:38:45.594Z,15.67
2018-11-20T07:41:58.248Z,15.87
2018-11-20T07:45:25.370Z,15.90
2018-11-20T07:48:34.824Z,16.03
2018-11-20T07:52:03.065Z,16.17
2018-11-20T07:55:12.345Z,16.00
2018-11-20T07:58:21.580Z,15.87
2018-11-20T08:01:37.284Z,16.00
2018-11-20T08:04:46.246Z,16.77
2018-11-20T08:07:54.971Z,16.67
2018-11-20T08:11:03.680Z,16.70
2018-11-20T08:14:03.099Z,16.23
2018-11-20T08:17:11.821Z,16.60
2018-11-20T08:20:20.803Z,16.07
2018-11-20T08:23:29.736Z,16.67
2018-11-20T08:26:39.309Z,16.73
2018-11-20T08:29:48.617Z,15.70
2018-11-20T08:32:57.697Z,15.57
2018-11-20T08:36:06.936Z,15.17
2018-11-20T08:39:15.645Z,15.73
2018-11-20T08:42:25.201Z,14.57
2018-11-20T08:45:35.041Z,15.10
2018-11-20T08:48:35.698Z,15.20
2018-11-20T08:54:41.948Z,15.60
2018-11-20T08:57:51.222Z,14.87
2018-11-20T09:03:29.644Z,14.53
2018-11-20T09:06:38.644Z,14.43
2018-11-20T09:09:47.670Z,14.47
2018-11-20T09:12:57.000Z,13.50
2018-11-20T09:15:58.626Z,13.60
2018-11-20T09:19:13.137Z,13.67
2018-11-20T09:22:25.616Z,12.93
2018-11-20T09:25:34.852Z,12.43
2018-11-20T09:28:43.466Z,12.87
2018-11-20T09:31:52.730Z,13.07
2018-11-20T09:35:02.877Z,12.80
2018-11-20T09:38:12.022Z,12.70
2018-11-20T09:41:21.003Z,12.87
2018-11-20T09:44:50.893Z,12.37
2018-11-20T09:48:00.651Z,12.43
2018-11-20T09:51:10.342Z,12.30
2018-11-20T09:54:19.919Z,12.30
2018-11-20T09:57:29.471Z,12.27
2018-11-20T10:00:38.782Z,12.57
2018-11-20T10:04:06.531Z,12.57
2018-11-20T10:07:15.946Z,12.07
2018-11-20T10:10:26.263Z,11.37
2018-11-20T10:13:35.340Z,11.47
2018-11-20T10:16:44.343Z,11.50
2018-11-20T10:19:53.325Z,11.20
2018-11-20T10:22:56.984Z,11.50
2018-11-20T10:26:06.076Z,11.67
2018-11-20T10:29:14.715Z,11.00
2018-11-20T10:32:23.752Z,11.57
2018-11-20T10:35:32.770Z,11.17
2018-11-20T10:38:42.211Z,10.90
2018-11-20T10:41:51.155Z,11.77
2018-11-20T10:44:59.870Z,11.73
2018-11-20T10:48:08.581Z,11.10
2018-11-20T10:51:18.473Z,10.73
2018-11-20T10:54:27.193Z,11.13
2018-11-20T10:57:31.876Z,10.83
2018-11-20T11:00:41.807Z,10.87
2018-11-20T11:03:50.924Z,10.67
2018-11-20T11:06:59.922Z,11.83
2018-11-20T11:10:09.627Z,11.33
2018-11-20T11:13:18.864Z,10.97
2018-11-20T11:16:28.140Z,11.03
2018-11-20T11:19:36.877Z,11.90
2018-11-20T11:22:45.583Z,10.63
2018-11-20T11:26:13.333Z,11.40
2018-11-20T11:29:22.060Z,11.00
2018-11-20T11:32:31.451Z,11.50
2018-11-20T11:35:40.414Z,11.83
2018-11-20T11:38:49.397Z,10.53
2018-11-20T11:41:49.050Z,11.40
2018-11-20T11:44:58.002Z,11.00
2018-11-20T11:48:06.726Z,10.80
2018-11-20T11:51:15.491Z,11.03
2018-11-20T11:59:35.492Z,10.43
2018-11-20T12:08:46.813Z,10.90
2018-11-20T12:11:56.190Z,10.33
2018-11-20T12:15:05.069Z,9.67
2018-11-20T12:18:13.831Z,10.00
2018-11-20T12:21:22.574Z,9.20
2018-11-20T12:27:02.655Z,10.20
2018-11-20T12:30:10.807Z,9.30
2018-11-20T12:41:04.192Z,8.80
2018-11-20T12:46:42.946Z,9.80
2018-11-20T12:50:10.823Z,9.20
2018-11-20T12:53:21.451Z,9.30
2018-11-20T12:56:28.946Z,9.17
2018-11-20T12:59:37.708Z,9.03
2018-11-20T13:02:46.488Z,9.40
2018-11-20T13:05:55.593Z,9.07
2018-11-20T13:09:05.026Z,8.67
2018-11-20T13:12:14.095Z,8.33
2018-11-20T13:15:11.805Z,8.90
2018-11-20T13:18:20.518Z,8.03
2018-11-20T13:21:29.733Z,8.00
2018-11-20T13:24:38.467Z,8.87
2018-11-20T13:30:20.628Z,8.73
2018-11-20T13:33:20.397Z,7.80
2018-11-20T13:36:47.707Z,9.27
2018-11-20T13:39:56.575Z,8.97
2018-11-20T13:43:06.200Z,9.70
2018-11-20T13:48:51.980Z,8.07
2018-11-20T13:54:39.645Z,8.47
2018-11-20T13:57:48.722Z,9.13
2018-11-20T14:00:57.641Z,9.23
2018-11-20T14:04:07.011Z,9.60
2018-11-20T14:07:15.957Z,9.50
2018-11-20T14:13:00.599Z,10.00
2018-11-20T14:16:10.203Z,9.00
2018-11-20T14:19:18.919Z,9.30
2018-11-20T14:22:27.676Z,9.30
2018-11-20T14:25:55.745Z,9.43
2018-11-20T14:28:54.150Z,9.27
2018-11-20T14:32:21.899Z,10.30
2018-11-20T14:38:01.030Z,9.57
2018-11-20T14:41:13.314Z,9.77
2018-11-20T14:44:14.352Z,10.00
2018-11-20T14:47:17.211Z,10.47
2018-11-20T14:50:26.836Z,9.67
2018-11-20T14:53:36.210Z,10.17
2018-11-20T14:56:45.711Z,9.83
2018-11-20T14:59:54.466Z,9.50
2018-11-20T15:03:03.331Z,10.67
2018-11-20T15:06:12.397Z,10.30
2018-11-20T15:09:21.420Z,10.23
2018-11-20T15:12:30.178Z,10.17
2018-11-20T15:15:41.046Z,10.27
2018-11-20T15:18:59.084Z,10.57
2018-11-20T15:22:08.334Z,10.00
2018-11-20T15:25:17.095Z,10.40
2018-11-20T15:28:16.869Z,10.40
2018-11-20T15:31:26.098Z,11.00
2018-11-20T15:34:35.095Z,10.97
2018-11-20T15:37:33.719Z,10.83
2018-11-20T15:40:29.446Z,11.07
2018-11-20T15:43:41.226Z,11.40
2018-11-20T15:46:50.210Z,11.53
2018-11-20T15:49:52.146Z,11.57
2018-11-20T15:53:01.969Z,11.30
2018-11-20T15:56:10.870Z,11.10
2018-11-20T15:59:40.289Z,11.80
2018-11-20T16:02:49.326Z,11.73
2018-11-20T16:05:59.003Z,11.93
2018-11-20T16:08:56.452Z,12.13
2018-11-20T16:12:05.265Z,12.30
2018-11-20T16:15:14.198Z,11.87
2018-11-20T16:18:11.276Z,12.33
2018-11-20T16:21:21.398Z,12.27
2018-11-20T16:24:30.624Z,13.00
2018-11-20T16:27:39.849Z,13.03
2018-11-20T16:30:50.056Z,13.47
2018-11-20T16:33:57.557Z,12.73
2018-11-20T16:37:07.550Z,12.53
2018-11-20T16:40:16.616Z,12.97
2018-11-20T16:43:25.638Z,12.97
2018-11-20T16:46:34.336Z,13.60
2018-11-20T16:49:43.572Z,13.03
2018-11-20T16:52:52.869Z,13.10
2018-11-20T16:56:45.673Z,13.73
2018-11-20T16:59:54.709Z,14.00
2018-11-20T17:03:02.672Z,13.77
2018-11-20T17:06:11.364Z,13.60
2018-11-20T17:09:19.605Z,13.70
2018-11-20T17:12:27.804Z,13.83
2018-11-20T17:15:36.182Z,13.97
2018-11-20T17:18:44.792Z,13.90
2018-11-20T17:21:52.742Z,14.47
2018-11-20T17:25:01.048Z,14.27
2018-11-20T17:28:09.114Z,14.00
2018-11-20T17:31:18.005Z,13.27
2018-11-20T17:34:26.770Z,13.77
2018-11-20T17:37:35.409Z,14.60
2018-11-20T17:40:43.582Z,14.43
2018-11-20T17:43:42.314Z,14.23
2018-11-20T17:46:50.958Z,14.20
2018-11-20T17:49:58.993Z,14.20
2018-11-20T17:52:58.020Z,14.33
2018-11-20T17:56:22.418Z,15.40
2018-11-20T17:59:14.642Z,14.43
2018-11-20T18:02:22.852Z,14.80
2018-11-20T18:05:30.831Z,15.57
2018-11-20T18:08:39.903Z,14.83
2018-11-20T18:12:07.322Z,14.93
2018-11-20T18:15:34.597Z,15.13
2018-11-20T18:18:42.554Z,15.60
2018-11-20T18:21:46.822Z,15.77
2018-11-20T18:24:55.122Z,16.23
2018-11-20T18:28:12.615Z,15.53
2018-11-20T18:31:21.582Z,17.07
2018-11-20T18:34:29.492Z,16.43
2018-11-20T18:37:38.103Z,17.07
2018-11-20T18:40:46.032Z,16.97
2018-11-20T18:44:13.381Z,17.00
2018-11-20T18:47:40.976Z,17.40
2018-11-20T18:50:49.224Z,18.67
2018-11-20T18:53:57.472Z,18.60
2018-11-20T18:57:05.692Z,18.47
2018-11-20T19:00:05.855Z,18.47
2018-11-20T19:03:14.025Z,18.20
2018-11-20T19:06:22.201Z,18.27
2018-11-20T19:09:49.791Z,17.80
2018-11-20T19:13:09.581Z,17.57
2018-11-20T19:16:18.017Z,18.07
2018-11-20T19:19:45.358Z,17.47
2018-11-20T19:22:53.547Z,17.23
2018-11-20T19:26:01.794Z,17.60
2018-11-20T19:29:09.744Z,17.50
2018-11-20T19:32:09.589Z,18.43
2018-11-20T19:35:17.818Z,19.23
2018-11-20T19:38:38.718Z,19.43
2018-11-20T19:41:47.356Z,19.63
2018-11-20T19:45:14.697Z,18.47
2018-11-20T19:48:22.904Z,18.47
2018-11-20T19:51:31.207Z,18.50
2018-11-20T19:54:52.972Z,17.97
2018-11-20T19:58:00.868Z,18.67
2018-11-20T20:01:09.154Z,18.73
2018-11-20T20:04:17.567Z,18.40
2018-11-20T20:07:25.631Z,18.83
2018-11-20T20:10:33.605Z,18.43
2018-11-20T20:13:41.842Z,20.23
2018-11-20T20:17:09.590Z,19.67
2018-11-20T20:20:17.752Z,18.80
2018-11-20T20:23:45.358Z,19.37
2018-11-20T20:26:53.901Z,21.93
2018-11-20T20:30:02.156Z,22.30
2018-11-20T20:33:10.534Z,21.37
2018-11-20T20:36:18.757Z,20.10
2018-11-20T20:39:28.616Z,19.37
2018-11-20T20:42:36.555Z,19.17
2018-11-20T20:46:03.914Z,18.77
2018-11-20T20:49:11.897Z,18.63
2018-11-20T20:52:19.778Z,19.00
2018-11-20T20:55:24.138Z,17.80
2018-11-20T20:58:32.428Z,18.27
2018-11-20T21:04:40.258Z,17.83
2018-11-20T21:07:48.516Z,17.57
2018-11-20T21:11:16.182Z,17.47
2018-11-20T21:14:24.600Z,18.33
2018-11-20T21:17:33.642Z,18.50
2018-11-20T21:20:41.589Z,18.67
2018-11-20T21:23:49.989Z,18.23
2018-11-20T21:27:17.456Z,18.77
2018-11-20T21:30:26.932Z,18.80
2018-11-20T21:33:35.203Z,18.33
2018-11-20T21:36:43.179Z,18.53
2018-11-20T21:39:51.394Z,19.73
2018-11-20T21:43:00.055Z,19.67
2018-11-20T21:46:07.974Z,19.83
2018-11-20T21:49:16.296Z,19.20
2018-11-20T21:52:24.556Z,18.10
2018-11-20T21:55:22.120Z,18.23
2018-11-20T21:58:29.439Z,20.20
2018-11-20T22:01:37.388Z,19.87
2018-11-20T22:04:45.749Z,19.27
2018-11-20T22:07:44.226Z,21.10
2018-11-20T22:10:52.764Z,19.00
2018-11-20T22:14:01.011Z,20.60
2018-11-20T22:17:09.144Z,20.10
2018-11-20T22:20:17.337Z,19.50
2018-11-20T22:23:25.813Z,19.53
2018-11-20T22:26:33.826Z,20.73
2018-11-20T22:29:42.024Z,22.20
2018-11-20T22:32:50.054Z,24.10
2018-11-20T22:35:58.256Z,22.90
2018-11-20T22:39:06.205Z,21.67
2018-11-20T22:42:11.011Z,21.90
2018-11-20T22:45:15.014Z,20.60
2018-11-20T22:48:23.075Z,20.23
2018-11-20T22:51:31.375Z,21.57
2018-11-20T22:54:40.521Z,20.77
2018-11-20T22:57:49.414Z,19.87
2018-11-20T23:01:16.827Z,20.83
2018-11-20T23:04:24.974Z,22.43
2018-11-20T23:07:33.156Z,20.97
2018-11-20T23:10:23.474Z,21.43
2018-11-20T23:13:13.118Z,20.93
2018-11-20T23:16:03.258Z,23.17
2018-11-20T23:18:52.393Z,26.13
2018-11-20T23:21:41.441Z,27.77
2018-11-20T23:24:30.522Z,28.60
2018-11-20T23:27:20.002Z,28.47
2018-11-20T23:30:11.098Z,29.90
2018-11-20T23:33:00.839Z,29.73
2018-11-20T23:35:49.749Z,30.33
2018-11-20T23:38:38.945Z,30.17
2018-11-20T23:41:47.468Z,33.80
2018-11-20T23:44:36.567Z,32.83
2018-11-20T23:47:26.029Z,34.00
2018-11-20T23:50:15.142Z,32.37
2018-11-20T23:53:03.996Z,32.43
2018-11-20T23:56:12.515Z,34.20
2018-11-20T23:59:01.348Z,34.13
